createdAt,value
2018-08-10T00:00:41.838Z,860.60
2018-08-10T00:01:41.714Z,860.57
2018-08-10T00:02:41.591Z,860.55
2018-08-10T00:03:41.759Z,860.57
2018-08-10T00:04:41.350Z,860.57
2018-08-10T00:05:41.224Z,860.61
2018-08-10T00:06:41.102Z,860.59
2018-08-10T00:07:40.980Z,860.57
2018-08-10T00:08:40.856Z,860.59
2018-08-10T00:09:40.737Z,860.60
2018-08-10T00:10:40.608Z,860.57
2018-08-10T00:11:40.485Z,860.63
2018-08-10T00:12:40.362Z,860.60
2018-08-10T00:13:40.241Z,860.60
2018-08-10T00:14:40.119Z,860.60
2018-08-10T00:15:39.993Z,860.59
2018-08-10T00:16:39.873Z,860.56
2018-08-10T00:17:39.750Z,860.53
2018-08-10T00:18:39.627Z,860.51
2018-08-10T00:19:39.504Z,860.58
2018-08-10T00:20:39.382Z,860.57
2018-08-10T00:21:39.259Z,860.60
2018-08-10T00:22:39.134Z,860.58
2018-08-10T00:23:39.015Z,860.62
2018-08-10T00:24:38.890Z,860.58
2018-08-10T00:25:38.770Z,860.55
2018-08-10T00:26:38.647Z,860.47
2018-08-10T00:27:38.522Z,860.43
2018-08-10T00:28:38.400Z,860.37
2018-08-10T00:29:38.281Z,860.42
2018-08-10T00:30:38.158Z,860.41
2018-08-10T00:31:38.037Z,860.46
2018-08-10T00:32:37.911Z,860.46
2018-08-10T00:33:37.787Z,860.48
2018-08-10T00:34:37.675Z,860.45
2018-08-10T00:35:37.542Z,860.47
2018-08-10T00:36:37.420Z,860.46
2018-08-10T00:37:37.300Z,860.49
2018-08-10T00:38:37.177Z,860.49
2018-08-10T00:39:37.054Z,860.49
2018-08-10T00:40:36.932Z,860.51
2018-08-10T00:41:36.809Z,860.50
2018-08-10T00:42:36.686Z,860.54
2018-08-10T00:43:36.564Z,860.54
2018-08-10T00:44:36.445Z,860.53
2018-08-10T00:45:36.320Z,860.54
2018-08-10T00:46:36.197Z,860.60
2018-08-10T00:47:36.078Z,860.60
2018-08-10T00:48:35.952Z,860.62
2018-08-10T00:49:35.829Z,860.62
2018-08-10T00:50:35.706Z,860.62
2018-08-10T00:51:35.588Z,860.63
2018-08-10T00:52:35.463Z,860.64
2018-08-10T00:53:35.342Z,860.61
2018-08-10T00:54:35.218Z,860.64
2018-08-10T00:55:35.099Z,860.61
2018-08-10T00:56:34.977Z,860.64
2018-08-10T00:57:34.854Z,860.67
2018-08-10T00:58:34.735Z,860.68
2018-08-10T00:59:34.607Z,860.69
2018-08-10T01:00:34.486Z,860.73
2018-08-10T01:01:34.369Z,860.73
2018-08-10T01:02:34.240Z,860.75
2018-08-10T01:03:34.120Z,860.73
2018-08-10T01:04:33.998Z,860.72
2018-08-10T01:05:33.877Z,860.70
2018-08-10T01:06:33.754Z,860.74
2018-08-10T01:07:33.629Z,860.68
2018-08-10T01:08:33.509Z,860.69
2018-08-10T01:09:33.387Z,860.72
2018-08-10T01:10:33.269Z,860.70
2018-08-10T01:11:33.139Z,860.72
2018-08-10T01:12:33.023Z,860.70
2018-08-10T01:13:33.014Z,860.70
2018-08-10T01:14:32.773Z,860.73
2018-08-10T01:15:32.652Z,860.75
2018-08-10T01:16:32.532Z,860.75
2018-08-10T01:17:32.408Z,860.74
2018-08-10T01:18:32.287Z,860.72
2018-08-10T01:19:32.166Z,860.74
2018-08-10T01:20:32.040Z,860.76
2018-08-10T01:21:31.915Z,860.77
2018-08-10T01:22:31.795Z,860.78
2018-08-10T01:23:31.672Z,860.85
2018-08-10T01:24:31.550Z,860.85
2018-08-10T01:25:31.430Z,860.87
2018-08-10T01:26:31.305Z,860.90
2018-08-10T01:27:31.185Z,860.88
2018-08-10T01:28:31.167Z,860.87
2018-08-10T01:29:30.943Z,860.92
2018-08-10T01:30:30.822Z,860.90
2018-08-10T01:31:30.695Z,860.89
2018-08-10T01:32:30.575Z,860.89
2018-08-10T01:33:30.449Z,860.91
2018-08-10T01:34:30.326Z,860.90
2018-08-10T01:35:30.209Z,860.93
2018-08-10T01:36:30.087Z,860.94
2018-08-10T01:37:29.964Z,860.95
2018-08-10T01:38:29.841Z,860.94
2018-08-10T01:39:29.718Z,860.94
2018-08-10T01:40:29.601Z,860.94
2018-08-10T01:41:29.476Z,860.94
2018-08-10T01:42:29.352Z,860.96
2018-08-10T01:43:29.229Z,860.96
2018-08-10T01:44:29.108Z,860.95
2018-08-10T01:45:28.988Z,860.95
2018-08-10T01:46:28.866Z,860.95
2018-08-10T01:47:28.743Z,860.98
2018-08-10T01:48:28.622Z,860.94
2018-08-10T01:49:28.505Z,860.96
2018-08-10T01:50:28.375Z,860.95
2018-08-10T01:51:28.258Z,860.97
2018-08-10T01:52:28.134Z,860.94
2018-08-10T01:53:28.014Z,860.95
2018-08-10T01:54:27.894Z,860.95
2018-08-10T01:55:27.767Z,860.95
2018-08-10T01:56:27.645Z,860.91
2018-08-10T01:57:27.526Z,860.94
2018-08-10T01:58:27.401Z,860.97
2018-08-10T01:59:27.279Z,860.94
2018-08-10T02:00:27.773Z,860.95
2018-08-10T02:01:27.039Z,860.95
2018-08-10T02:02:26.913Z,860.94
2018-08-10T02:03:26.792Z,860.95
2018-08-10T02:04:26.671Z,860.94
2018-08-10T02:05:26.549Z,860.93
2018-08-10T02:06:26.427Z,860.93
2018-08-10T02:07:26.305Z,860.92
2018-08-10T02:08:26.185Z,860.91
2018-08-10T02:09:26.066Z,860.95
2018-08-10T02:10:25.939Z,860.93
2018-08-10T02:11:25.817Z,860.93
2018-08-10T02:12:25.695Z,860.91
2018-08-10T02:13:25.573Z,860.90
2018-08-10T02:14:25.459Z,860.96
2018-08-10T02:15:25.331Z,860.94
2018-08-10T02:16:25.209Z,860.95
2018-08-10T02:17:25.088Z,860.96
2018-08-10T02:18:24.965Z,860.93
2018-08-10T02:19:24.839Z,860.91
2018-08-10T02:20:24.722Z,860.91
2018-08-10T02:21:24.598Z,860.89
2018-08-10T02:22:24.477Z,860.87
2018-08-10T02:23:24.353Z,860.90
2018-08-10T02:24:24.240Z,860.86
2018-08-10T02:25:24.113Z,860.83
2018-08-10T02:26:23.989Z,860.84
2018-08-10T02:27:23.866Z,860.81
2018-08-10T02:28:23.750Z,860.82
2018-08-10T02:29:23.773Z,860.80
2018-08-10T02:30:23.501Z,860.78
2018-08-10T02:31:23.379Z,860.81
2018-08-10T02:32:23.261Z,860.80
2018-08-10T02:33:23.137Z,860.75
2018-08-10T02:34:23.015Z,860.74
2018-08-10T02:35:22.894Z,860.66
2018-08-10T02:36:22.771Z,860.68
2018-08-10T02:37:22.656Z,860.67
2018-08-10T02:38:22.527Z,860.68
2018-08-10T02:39:22.406Z,860.67
2018-08-10T02:40:22.285Z,860.69
2018-08-10T02:41:22.163Z,860.69
2018-08-10T02:42:22.043Z,860.70
2018-08-10T02:43:21.924Z,860.78
2018-08-10T02:44:21.797Z,860.81
2018-08-10T02:45:21.676Z,860.82
2018-08-10T02:46:21.555Z,860.84
2018-08-10T02:47:21.431Z,860.83
2018-08-10T02:48:21.315Z,860.84
2018-08-10T02:49:21.189Z,860.81
2018-08-10T02:50:21.068Z,860.82
2018-08-10T02:51:20.945Z,860.83
2018-08-10T02:52:20.824Z,860.80
2018-08-10T02:53:20.705Z,860.83
2018-08-10T02:54:20.580Z,860.84
2018-08-10T02:55:20.458Z,860.83
2018-08-10T02:56:20.338Z,860.87
2018-08-10T02:57:20.217Z,860.86
2018-08-10T02:58:20.093Z,860.87
2018-08-10T02:59:19.970Z,860.88
2018-08-10T03:00:19.849Z,860.87
2018-08-10T03:01:19.729Z,860.87
2018-08-10T03:02:19.607Z,860.89
2018-08-10T03:03:19.484Z,860.88
2018-08-10T03:04:19.373Z,860.92
2018-08-10T03:05:19.241Z,860.88
2018-08-10T03:06:19.116Z,860.87
2018-08-10T03:07:18.996Z,860.88
2018-08-10T03:08:18.873Z,860.91
2018-08-10T03:09:18.752Z,860.88
2018-08-10T03:10:18.630Z,860.85
2018-08-10T03:11:18.509Z,860.91
2018-08-10T03:12:18.388Z,860.87
2018-08-10T03:13:18.266Z,860.93
2018-08-10T03:14:18.141Z,860.90
2018-08-10T03:15:18.021Z,860.94
2018-08-10T03:16:17.905Z,860.90
2018-08-10T03:17:17.774Z,860.95
2018-08-10T03:18:17.654Z,860.93
2018-08-10T03:19:17.533Z,860.93
2018-08-10T03:20:17.407Z,860.95
2018-08-10T03:21:17.290Z,860.95
2018-08-10T03:22:17.183Z,860.96
2018-08-10T03:23:17.044Z,860.96
2018-08-10T03:24:16.919Z,860.95
2018-08-10T03:25:16.797Z,860.92
2018-08-10T03:26:16.677Z,860.96
2018-08-10T03:27:16.553Z,860.96
2018-08-10T03:28:16.431Z,860.89
2018-08-10T03:29:16.309Z,860.91
2018-08-10T03:30:16.189Z,860.94
2018-08-10T03:31:16.062Z,860.88
2018-08-10T03:32:15.941Z,860.87
2018-08-10T03:33:15.817Z,860.88
2018-08-10T03:34:15.693Z,860.86
2018-08-10T03:35:15.574Z,860.95
2018-08-10T03:36:15.452Z,860.90
2018-08-10T03:37:15.328Z,860.93
2018-08-10T03:38:15.205Z,860.91
2018-08-10T03:39:15.088Z,860.87
2018-08-10T03:40:14.961Z,860.86
2018-08-10T03:41:14.881Z,860.88
2018-08-10T03:42:14.714Z,860.87
2018-08-10T03:43:14.593Z,860.89
2018-08-10T03:44:14.473Z,860.87
2018-08-10T03:45:14.352Z,860.89
2018-08-10T03:46:14.230Z,860.87
2018-08-10T03:47:14.108Z,860.86
2018-08-10T03:48:13.982Z,860.84
2018-08-10T03:49:13.859Z,860.84
2018-08-10T03:50:13.742Z,860.80
2018-08-10T03:51:13.616Z,860.78
2018-08-10T03:52:13.493Z,860.79
2018-08-10T03:53:13.370Z,860.74
2018-08-10T03:54:15.827Z,860.78
2018-08-10T03:55:13.124Z,860.77
2018-08-10T03:56:13.051Z,860.77
2018-08-10T03:57:13.808Z,860.78
2018-08-10T03:58:12.760Z,860.76
2018-08-10T03:59:12.638Z,860.76
2018-08-10T04:00:12.526Z,860.76
2018-08-10T04:01:14.334Z,860.75
2018-08-10T04:02:12.273Z,860.77
2018-08-10T04:03:12.150Z,860.78
2018-08-10T04:04:12.029Z,860.80
2018-08-10T04:05:11.907Z,860.77
2018-08-10T04:06:11.782Z,860.81
2018-08-10T04:07:11.662Z,860.85
2018-08-10T04:08:11.540Z,860.83
2018-08-10T04:09:11.418Z,860.84
2018-08-10T04:10:11.293Z,860.83
2018-08-10T04:11:11.174Z,860.83
2018-08-10T04:12:11.053Z,860.82
2018-08-10T04:13:10.930Z,860.80
2018-08-10T04:14:10.811Z,860.84
2018-08-10T04:15:10.684Z,860.84
2018-08-10T04:16:10.563Z,860.82
2018-08-10T04:17:10.444Z,860.86
2018-08-10T04:18:10.319Z,860.82
2018-08-10T04:19:10.197Z,860.84
2018-08-10T04:20:10.079Z,860.80
2018-08-10T04:21:09.957Z,860.82
2018-08-10T04:22:09.833Z,860.80
2018-08-10T04:23:09.708Z,860.80
2018-08-10T04:24:09.593Z,860.82
2018-08-10T04:25:09.469Z,860.85
2018-08-10T04:26:09.822Z,860.86
2018-08-10T04:27:09.219Z,860.91
2018-08-10T04:28:09.100Z,860.91
2018-08-10T04:29:08.978Z,860.93
2018-08-10T04:30:08.855Z,860.99
2018-08-10T04:31:08.732Z,860.95
2018-08-10T04:32:08.611Z,860.99
2018-08-10T04:33:08.495Z,860.98
2018-08-10T04:34:08.363Z,861.01
2018-08-10T04:35:08.246Z,861.02
2018-08-10T04:36:08.121Z,861.01
2018-08-10T04:37:07.999Z,861.04
2018-08-10T04:38:07.877Z,861.04
2018-08-10T04:39:07.755Z,861.12
2018-08-10T04:40:07.631Z,861.08
2018-08-10T04:41:07.510Z,861.10
2018-08-10T04:42:07.387Z,861.13
2018-08-10T04:43:07.266Z,861.11
2018-08-10T04:44:07.146Z,861.18
2018-08-10T04:45:07.025Z,861.18
2018-08-10T04:46:06.902Z,861.19
2018-08-10T04:47:06.777Z,861.18
2018-08-10T04:48:06.697Z,861.20
2018-08-10T04:49:06.534Z,861.24
2018-08-10T04:50:06.410Z,861.18
2018-08-10T04:51:06.289Z,861.17
2018-08-10T04:52:06.166Z,861.19
2018-08-10T04:53:06.048Z,861.16
2018-08-10T04:54:05.922Z,861.19
2018-08-10T04:55:05.839Z,861.21
2018-08-10T04:56:05.678Z,861.24
2018-08-10T04:57:05.565Z,861.24
2018-08-10T04:58:05.435Z,861.25
2018-08-10T04:59:05.311Z,861.27
2018-08-10T05:00:05.194Z,861.21
2018-08-10T05:01:05.068Z,861.22
2018-08-10T05:02:04.944Z,861.22
2018-08-10T05:03:04.823Z,861.20
2018-08-10T05:04:04.702Z,861.19
2018-08-10T05:05:04.579Z,861.19
2018-08-10T05:06:04.455Z,861.19
2018-08-10T05:07:04.337Z,861.17
2018-08-10T05:08:04.214Z,861.18
2018-08-10T05:09:04.093Z,861.18
2018-08-10T05:10:03.968Z,861.20
2018-08-10T05:11:03.850Z,861.22
2018-08-10T05:12:03.724Z,861.22
2018-08-10T05:13:05.009Z,861.20
2018-08-10T05:14:03.479Z,861.21
2018-08-10T05:15:03.354Z,861.25
2018-08-10T05:16:03.233Z,861.27
2018-08-10T05:17:03.113Z,861.29
2018-08-10T05:18:02.994Z,861.29
2018-08-10T05:19:02.868Z,861.36
2018-08-10T05:20:02.744Z,861.32
2018-08-10T05:21:02.623Z,861.33
2018-08-10T05:22:02.501Z,861.33
2018-08-10T05:23:02.378Z,861.33
2018-08-10T05:24:02.254Z,861.38
2018-08-10T05:25:02.135Z,861.40
2018-08-10T05:26:02.022Z,861.43
2018-08-10T05:27:01.887Z,861.41
2018-08-10T05:28:01.765Z,861.41
2018-08-10T05:29:01.643Z,861.45
2018-08-10T05:30:01.523Z,861.45
2018-08-10T05:31:01.402Z,861.46
2018-08-10T05:32:01.278Z,861.46
2018-08-10T05:33:01.156Z,861.44
2018-08-10T05:34:01.033Z,861.44
2018-08-10T05:35:00.919Z,861.45
2018-08-10T05:36:00.791Z,861.47
2018-08-10T05:37:00.670Z,861.47
2018-08-10T05:38:00.549Z,861.44
2018-08-10T05:39:00.430Z,861.45
2018-08-10T05:40:00.302Z,861.47
2018-08-10T05:41:00.179Z,861.45
2018-08-10T05:42:00.061Z,861.45
2018-08-10T05:42:59.945Z,861.47
2018-08-10T05:43:59.876Z,861.50
2018-08-10T05:44:59.691Z,861.56
2018-08-10T05:45:59.569Z,861.55
2018-08-10T05:46:59.521Z,861.50
2018-08-10T05:47:59.367Z,861.57
2018-08-10T05:48:59.205Z,861.58
2018-08-10T05:49:59.084Z,861.62
2018-08-10T05:50:58.983Z,861.61
2018-08-10T05:51:58.837Z,861.69
2018-08-10T05:52:58.715Z,861.69
2018-08-10T05:53:58.593Z,861.72
2018-08-10T05:54:58.470Z,861.73
2018-08-10T05:55:58.344Z,861.70
2018-08-10T05:56:58.223Z,861.73
2018-08-10T05:57:58.102Z,861.69
2018-08-10T05:58:57.979Z,861.71
2018-08-10T05:59:57.857Z,861.68
2018-08-10T06:00:57.736Z,861.69
2018-08-10T06:01:57.618Z,861.71
2018-08-10T06:02:57.491Z,861.72
2018-08-10T06:03:57.488Z,861.72
2018-08-10T06:04:57.246Z,861.72
2018-08-10T06:05:57.126Z,861.67
2018-08-10T06:06:57.005Z,861.71
2018-08-10T06:07:56.880Z,861.72
2018-08-10T06:08:56.757Z,861.68
2018-08-10T06:09:56.639Z,861.71
2018-08-10T06:10:56.512Z,861.68
2018-08-10T06:11:56.391Z,861.69
2018-08-10T06:12:56.269Z,861.68
2018-08-10T06:13:56.148Z,861.71
2018-08-10T06:14:56.026Z,861.73
2018-08-10T06:15:55.901Z,861.73
2018-08-10T06:16:55.778Z,861.75
2018-08-10T06:17:55.654Z,861.77
2018-08-10T06:18:55.534Z,861.75
2018-08-10T06:19:55.471Z,861.76
2018-08-10T06:20:55.291Z,861.76
2018-08-10T06:21:55.166Z,861.73
2018-08-10T06:22:55.906Z,861.73
2018-08-10T06:23:54.977Z,861.72
2018-08-10T06:24:54.848Z,861.68
2018-08-10T06:25:54.679Z,861.69
2018-08-10T06:26:54.557Z,861.71
2018-08-10T06:27:54.484Z,861.72
2018-08-10T06:28:54.313Z,861.70
2018-08-10T06:29:54.194Z,861.72
2018-08-10T06:30:54.070Z,861.72
2018-08-10T06:31:53.948Z,861.70
2018-08-10T06:32:53.827Z,861.73
2018-08-10T06:33:53.785Z,861.75
2018-08-10T06:34:53.583Z,861.71
2018-08-10T06:35:53.460Z,861.75
2018-08-10T06:36:53.341Z,861.73
2018-08-10T06:37:53.214Z,861.74
2018-08-10T06:38:53.093Z,861.78
2018-08-10T06:39:52.997Z,861.75
2018-08-10T06:40:52.852Z,861.75
2018-08-10T06:41:52.731Z,861.76
2018-08-10T06:42:52.611Z,861.74
2018-08-10T06:43:52.484Z,861.74
2018-08-10T06:44:52.403Z,861.76
2018-08-10T06:45:52.243Z,861.77
2018-08-10T06:46:52.119Z,861.78
2018-08-10T06:47:51.995Z,861.78
2018-08-10T06:48:51.872Z,861.79
2018-08-10T06:49:51.752Z,861.83
2018-08-10T06:50:51.627Z,861.87
2018-08-10T06:51:51.873Z,861.86
2018-08-10T06:52:51.385Z,861.87
2018-08-10T06:53:51.262Z,861.87
2018-08-10T06:54:52.872Z,861.88
2018-08-10T06:55:51.057Z,861.87
2018-08-10T06:56:50.898Z,861.93
2018-08-10T06:57:50.770Z,861.93
2018-08-10T06:58:50.649Z,861.89
2018-08-10T06:59:50.528Z,861.89
2018-08-10T07:00:50.440Z,861.93
2018-08-10T07:01:50.284Z,861.91
2018-08-10T07:02:50.159Z,861.92
2018-08-10T07:03:50.041Z,861.99
2018-08-10T07:04:49.916Z,861.95
2018-08-10T07:05:49.793Z,861.98
2018-08-10T07:06:49.670Z,861.94
2018-08-10T07:07:49.612Z,861.93
2018-08-10T07:08:49.425Z,861.91
2018-08-10T07:09:49.302Z,861.95
2018-08-10T07:10:49.181Z,861.92
2018-08-10T07:11:49.059Z,861.97
2018-08-10T07:12:48.951Z,861.95
2018-08-10T07:13:48.813Z,861.98
2018-08-10T07:14:48.691Z,861.99
2018-08-10T07:15:48.577Z,861.97
2018-08-10T07:16:48.449Z,862.01
2018-08-10T07:17:48.324Z,862.05
2018-08-10T07:18:48.200Z,862.04
2018-08-10T07:19:48.080Z,862.05
2018-08-10T07:20:47.954Z,862.05
2018-08-10T07:21:47.833Z,862.04
2018-08-10T07:22:47.711Z,862.06
2018-08-10T07:23:47.592Z,862.05
2018-08-10T07:24:47.473Z,862.07
2018-08-10T07:25:47.344Z,862.06
2018-08-10T07:26:47.222Z,862.08
2018-08-10T07:27:47.097Z,862.10
2018-08-10T07:28:46.976Z,862.11
2018-08-10T07:29:46.850Z,862.13
2018-08-10T07:30:46.728Z,862.17
2018-08-10T07:31:46.607Z,862.19
2018-08-10T07:32:46.486Z,862.18
2018-08-10T07:33:46.360Z,862.23
2018-08-10T07:34:46.241Z,862.22
2018-08-10T07:35:46.114Z,862.27
2018-08-10T07:36:45.993Z,862.25
2018-08-10T07:37:45.875Z,862.26
2018-08-10T07:38:45.749Z,862.27
2018-08-10T07:39:45.627Z,862.24
2018-08-10T07:40:45.508Z,862.23
2018-08-10T07:41:45.380Z,862.22
2018-08-10T07:42:45.258Z,862.25
2018-08-10T07:43:45.136Z,862.27
2018-08-10T07:44:45.008Z,862.29
2018-08-10T07:45:44.887Z,862.27
2018-08-10T07:46:44.766Z,862.27
2018-08-10T07:47:44.642Z,862.30
2018-08-10T07:48:44.519Z,862.31
2018-08-10T07:49:44.396Z,862.28
2018-08-10T07:50:44.276Z,862.29
2018-08-10T07:51:44.267Z,862.29
2018-08-10T07:52:44.030Z,862.28
2018-08-10T07:53:43.908Z,862.33
2018-08-10T07:54:43.782Z,862.34
2018-08-10T07:55:43.660Z,862.35
2018-08-10T07:56:43.536Z,862.38
2018-08-10T07:57:43.415Z,862.38
2018-08-10T07:58:43.298Z,862.37
2018-08-10T07:59:43.173Z,862.40
2018-08-10T08:00:43.045Z,862.41
2018-08-10T08:01:42.924Z,862.40
2018-08-10T08:02:42.804Z,862.41
2018-08-10T08:03:42.678Z,862.44
2018-08-10T08:04:42.556Z,862.42
2018-08-10T08:05:42.433Z,862.44
2018-08-10T08:06:43.727Z,862.47
2018-08-10T08:07:42.188Z,862.45
2018-08-10T08:08:42.065Z,862.42
2018-08-10T08:09:41.971Z,862.43
2018-08-10T08:10:41.820Z,862.44
2018-08-10T08:11:41.699Z,862.43
2018-08-10T08:12:41.579Z,862.42
2018-08-10T08:13:41.473Z,862.45
2018-08-10T08:14:41.329Z,862.48
2018-08-10T08:15:41.205Z,862.49
2018-08-10T08:16:41.084Z,862.51
2018-08-10T08:17:40.959Z,862.51
2018-08-10T08:18:40.843Z,862.56
2018-08-10T08:19:40.820Z,862.57
2018-08-10T08:20:40.593Z,862.57
2018-08-10T08:21:40.468Z,862.59
2018-08-10T08:22:40.347Z,862.57
2018-08-10T08:23:40.224Z,862.59
2018-08-10T08:24:40.100Z,862.59
2018-08-10T08:25:39.976Z,862.57
2018-08-10T08:26:39.855Z,862.62
2018-08-10T08:27:39.733Z,862.61
2018-08-10T08:28:39.611Z,862.61
2018-08-10T08:29:39.861Z,862.63
2018-08-10T08:30:39.363Z,862.62
2018-08-10T08:31:41.915Z,862.64
2018-08-10T08:32:39.952Z,862.63
2018-08-10T08:33:39.052Z,862.65
2018-08-10T08:34:38.886Z,862.67
2018-08-10T08:35:38.749Z,862.68
2018-08-10T08:36:39.940Z,862.66
2018-08-10T08:37:38.507Z,862.65
2018-08-10T08:38:38.384Z,862.69
2018-08-10T08:39:38.256Z,862.63
2018-08-10T08:40:38.138Z,862.64
2018-08-10T08:41:38.012Z,862.64
2018-08-10T08:42:45.481Z,862.60
2018-08-10T08:43:37.765Z,862.63
2018-08-10T08:44:37.649Z,862.64
2018-08-10T08:45:38.437Z,862.66
2018-08-10T08:46:37.639Z,862.71
2018-08-10T08:47:37.276Z,862.73
2018-08-10T08:48:37.899Z,862.75
2018-08-10T08:49:37.026Z,862.68
2018-08-10T08:50:36.905Z,862.73
2018-08-10T08:51:38.478Z,862.71
2018-08-10T08:52:36.660Z,862.72
2018-08-10T08:53:36.539Z,862.70
2018-08-10T08:54:36.412Z,862.74
2018-08-10T08:55:36.290Z,862.71
2018-08-10T08:56:36.168Z,862.70
2018-08-10T08:57:36.046Z,862.71
2018-08-10T08:58:35.923Z,862.76
2018-08-10T08:59:35.811Z,862.76
2018-08-10T09:00:36.411Z,862.73
2018-08-10T09:01:37.000Z,862.75
2018-08-10T09:02:35.705Z,862.75
2018-08-10T09:03:35.309Z,862.77
2018-08-10T09:04:35.910Z,862.77
2018-08-10T09:05:35.207Z,862.76
2018-08-10T09:06:35.012Z,862.77
2018-08-10T09:07:35.551Z,862.77
2018-08-10T09:08:34.696Z,862.75
2018-08-10T09:09:35.571Z,862.78
2018-08-10T09:10:34.449Z,862.78
2018-08-10T09:11:34.328Z,862.84
2018-08-10T09:12:34.206Z,862.83
2018-08-10T09:13:34.082Z,862.83
2018-08-10T09:14:33.960Z,862.81
2018-08-10T09:15:33.843Z,862.81
2018-08-10T09:16:33.760Z,862.80
2018-08-10T09:17:34.529Z,862.82
2018-08-10T09:18:33.468Z,862.81
2018-08-10T09:19:33.380Z,862.81
2018-08-10T09:20:33.226Z,862.82
2018-08-10T09:21:33.100Z,862.78
2018-08-10T09:22:32.976Z,862.76
2018-08-10T09:23:32.853Z,862.77
2018-08-10T09:24:32.734Z,862.75
2018-08-10T09:25:32.614Z,862.77
2018-08-10T09:26:33.416Z,862.75
2018-08-10T09:27:32.367Z,862.74
2018-08-10T09:28:32.246Z,862.74
2018-08-10T09:29:32.578Z,862.76
2018-08-10T09:30:32.004Z,862.78
2018-08-10T09:31:31.877Z,862.83
2018-08-10T09:32:31.753Z,862.84
2018-08-10T09:33:31.628Z,862.83
2018-08-10T09:34:31.980Z,862.85
2018-08-10T09:35:31.383Z,862.85
2018-08-10T09:36:31.922Z,862.81
2018-08-10T09:37:31.159Z,862.77
2018-08-10T09:38:31.021Z,862.75
2018-08-10T09:39:30.898Z,862.75
2018-08-10T09:40:32.079Z,862.75
2018-08-10T09:41:31.425Z,862.75
2018-08-10T09:42:30.524Z,862.75
2018-08-10T09:43:30.403Z,862.75
2018-08-10T09:44:30.282Z,862.73
2018-08-10T09:45:30.226Z,862.73
2018-08-10T09:46:30.059Z,862.77
2018-08-10T09:47:29.915Z,862.75
2018-08-10T09:48:29.791Z,862.83
2018-08-10T09:49:29.681Z,862.85
2018-08-10T09:50:29.730Z,862.84
2018-08-10T09:51:29.436Z,862.86
2018-08-10T09:52:29.301Z,862.85
2018-08-10T09:53:29.175Z,862.83
2018-08-10T09:54:29.061Z,862.83
2018-08-10T09:55:28.931Z,862.81
2018-08-10T09:56:28.808Z,862.78
2018-08-10T09:57:29.735Z,862.77
2018-08-10T09:58:28.575Z,862.78
2018-08-10T09:59:28.442Z,862.75
2018-08-10T10:00:28.324Z,862.72
2018-08-10T10:01:28.196Z,862.77
2018-08-10T10:02:28.073Z,862.71
2018-08-10T10:03:27.949Z,862.75
2018-08-10T10:04:27.830Z,862.76
2018-08-10T10:05:27.706Z,862.76
2018-08-10T10:06:27.585Z,862.75
2018-08-10T10:07:27.463Z,862.76
2018-08-10T10:08:27.338Z,862.79
2018-08-10T10:09:27.220Z,862.73
2018-08-10T10:10:27.096Z,862.75
2018-08-10T10:11:27.045Z,862.76
2018-08-10T10:12:26.854Z,862.74
2018-08-10T10:13:26.727Z,862.82
2018-08-10T10:14:26.653Z,862.74
2018-08-10T10:15:26.527Z,862.79
2018-08-10T10:16:26.361Z,862.77
2018-08-10T10:17:26.347Z,862.78
2018-08-10T10:18:26.185Z,862.76
2018-08-10T10:19:26.048Z,862.77
2018-08-10T10:20:25.873Z,862.73
2018-08-10T10:21:25.747Z,862.74
2018-08-10T10:22:25.624Z,862.71
2018-08-10T10:23:25.502Z,862.72
2018-08-10T10:24:25.541Z,862.73
2018-08-10T10:25:25.257Z,862.71
2018-08-10T10:26:25.133Z,862.72
2018-08-10T10:27:25.068Z,862.70
2018-08-10T10:28:24.895Z,862.73
2018-08-10T10:29:24.767Z,862.75
2018-08-10T10:30:24.649Z,862.77
2018-08-10T10:31:24.524Z,862.76
2018-08-10T10:32:24.442Z,862.74
2018-08-10T10:33:24.281Z,862.74
2018-08-10T10:34:24.156Z,862.71
2018-08-10T10:35:24.047Z,862.74
2018-08-10T10:36:23.912Z,862.73
2018-08-10T10:37:23.791Z,862.75
2018-08-10T10:38:23.669Z,862.74
2018-08-10T10:39:23.548Z,862.72
2018-08-10T10:40:24.313Z,862.72
2018-08-10T10:41:23.562Z,862.74
2018-08-10T10:42:23.182Z,862.76
2018-08-10T10:43:23.059Z,862.77
2018-08-10T10:44:24.429Z,862.76
2018-08-10T10:45:23.013Z,862.79
2018-08-10T10:46:22.695Z,862.77
2018-08-10T10:47:22.623Z,862.80
2018-08-10T10:48:22.447Z,862.78
2018-08-10T10:49:22.330Z,862.76
2018-08-10T10:50:22.203Z,862.82
2018-08-10T10:51:22.134Z,862.80
2018-08-10T10:52:21.970Z,862.80
2018-08-10T10:53:21.838Z,862.78
2018-08-10T10:54:21.715Z,862.83
2018-08-10T10:55:21.650Z,862.83
2018-08-10T10:56:21.476Z,862.84
2018-08-10T10:57:21.347Z,862.84
2018-08-10T10:58:21.258Z,862.83
2018-08-10T10:59:21.105Z,862.84
2018-08-10T11:00:21.940Z,862.78
2018-08-10T11:01:20.860Z,862.77
2018-08-10T11:02:20.739Z,862.75
2018-08-10T11:03:20.620Z,862.84
2018-08-10T11:04:20.493Z,862.81
2018-08-10T11:05:20.375Z,862.85
2018-08-10T11:06:20.323Z,862.82
2018-08-10T11:07:20.128Z,862.81
2018-08-10T11:08:20.005Z,862.85
2018-08-10T11:09:19.892Z,862.84
2018-08-10T11:10:19.764Z,862.88
2018-08-10T11:11:19.644Z,862.87
2018-08-10T11:12:19.516Z,862.86
2018-08-10T11:13:19.394Z,862.86
2018-08-10T11:14:19.956Z,862.83
2018-08-10T11:15:19.150Z,862.83
2018-08-10T11:16:19.031Z,862.90
2018-08-10T11:17:18.907Z,862.88
2018-08-10T11:18:18.784Z,862.87
2018-08-10T11:19:19.444Z,862.90
2018-08-10T11:20:18.541Z,862.93
2018-08-10T11:21:18.440Z,862.95
2018-08-10T11:22:18.293Z,862.95
2018-08-10T11:23:18.172Z,862.95
2018-08-10T11:24:21.024Z,862.94
2018-08-10T11:25:18.286Z,862.94
2018-08-10T11:26:17.806Z,862.97
2018-08-10T11:27:17.683Z,862.92
2018-08-10T11:28:17.562Z,862.94
2018-08-10T11:29:17.437Z,862.97
2018-08-10T11:30:17.651Z,862.98
2018-08-10T11:31:18.356Z,862.98
2018-08-10T11:32:17.272Z,863.00
2018-08-10T11:33:17.172Z,862.99
2018-08-10T11:34:16.826Z,862.99
2018-08-10T11:35:16.707Z,863.05
2018-08-10T11:36:19.538Z,863.03
2018-08-10T11:37:16.910Z,863.07
2018-08-10T11:38:17.754Z,863.08
2018-08-10T11:39:23.672Z,863.07
2018-08-10T11:40:17.718Z,863.03
2018-08-10T11:41:15.969Z,863.10
2018-08-10T11:42:15.847Z,863.09
2018-08-10T11:43:16.071Z,863.08
2018-08-10T11:44:15.610Z,863.05
2018-08-10T11:45:15.480Z,863.08
2018-08-10T11:46:15.357Z,863.07
2018-08-10T11:47:15.237Z,863.08
2018-08-10T11:48:15.121Z,863.16
2018-08-10T11:49:14.991Z,863.19
2018-08-10T11:50:14.872Z,863.17
2018-08-10T11:51:14.750Z,863.17
2018-08-10T11:52:14.628Z,863.22
2018-08-10T11:53:14.503Z,863.25
2018-08-10T11:54:14.384Z,863.31
2018-08-10T11:55:14.256Z,863.29
2018-08-10T11:56:14.135Z,863.31
2018-08-10T11:57:14.057Z,863.31
2018-08-10T11:58:13.892Z,863.32
2018-08-10T11:59:13.769Z,863.27
2018-08-10T12:00:14.294Z,863.28
2018-08-10T12:01:13.527Z,863.32
2018-08-10T12:02:13.523Z,863.28
2018-08-10T12:03:14.565Z,863.33
2018-08-10T12:04:13.163Z,863.34
2018-08-10T12:05:13.036Z,863.37
2018-08-10T12:06:12.960Z,863.38
2018-08-10T12:07:13.066Z,863.36
2018-08-10T12:08:12.673Z,863.40
2018-08-10T12:09:12.548Z,863.35
2018-08-10T12:10:12.450Z,863.35
2018-08-10T12:11:12.309Z,863.33
2018-08-10T12:12:12.179Z,863.29
2018-08-10T12:13:12.058Z,863.28
2018-08-10T12:14:11.935Z,863.29
2018-08-10T12:15:11.814Z,863.26
2018-08-10T12:16:11.690Z,863.29
2018-08-10T12:17:11.570Z,863.29
2018-08-10T12:18:11.562Z,863.30
2018-08-10T12:19:11.489Z,863.30
2018-08-10T12:20:11.213Z,863.28
2018-08-10T12:21:11.153Z,863.28
2018-08-10T12:22:10.951Z,863.27
2018-08-10T12:23:10.829Z,863.28
2018-08-10T12:24:10.709Z,863.27
2018-08-10T12:25:10.663Z,863.24
2018-08-10T12:26:10.461Z,863.19
2018-08-10T12:27:10.342Z,863.19